Time;durP1;ratioP1;P1;durP2;ratioP2;P2;SDS_P1;SDS_P2;PMS_P1;PMS_P2;Temp;Humidity;BMP_temperature;BMP_pressure;BME280_temperature;BME280_humidity;BME280_pressure;Samples;Min_cycle;Max_cycle;Signal;HPM_P1;HPM_P2
2022/02/21 00:01:22;;;;;;;0.90;0.70;;;;;;;5.65;93.01;96901.29;1723607;82;21732;-64
2022/02/21 00:03:49;;;;;;;0.80;0.70;;;;;;;5.68;93.02;96882.95;1724997;82;20964;-63
2022/02/21 00:06:16;;;;;;;1.22;0.68;;;;;;;5.69;92.96;96879.44;1723226;80;21019;-63
2022/02/21 00:08:42;;;;;;;0.73;0.70;;;;;;;5.72;93.12;96876.63;1726580;82;20935;-64
2022/02/21 00:11:09;;;;;;;0.80;0.57;;;;;;;5.74;93.16;96866.96;1727264;82;21068;-63
2022/02/21 00:13:36;;;;;;;0.70;0.55;;;;;;;5.74;93.19;96865.22;1726555;82;21810;-64
2022/02/21 00:16:02;;;;;;;1.00;0.73;;;;;;;5.74;93.21;96863.08;1726739;82;21002;-63
2022/02/21 00:18:30;;;;;;;;;;;;;;;5.55;93.48;96819.14;1725673;82;21053;-63
2022/02/21 00:20:56;;;;;;;0.80;0.60;;;;;;;5.76;93.37;96849.56;1722688;82;20536;-64
2022/02/21 00:23:23;;;;;;;0.60;0.60;;;;;;;5.76;93.40;96840.02;1723600;82;21034;-63
2022/02/21 00:25:50;;;;;;;0.60;0.60;;;;;;;5.78;93.41;96837.34;1722430;82;23297;-64
2022/02/21 00:28:16;;;;;;;3.13;0.80;;;;;;;5.78;93.42;96832.16;1726402;82;20947;-63
2022/02/21 00:30:43;;;;;;;1.63;0.60;;;;;;;5.79;93.42;96830.73;1724034;82;21057;-64
2022/02/21 00:33:10;;;;;;;0.90;0.60;;;;;;;5.80;93.46;96822.52;1724571;82;21090;-64
2022/02/21 00:35:37;;;;;;;1.00;0.60;;;;;;;5.79;93.46;96812.61;1726489;80;21523;-64
2022/02/21 00:38:03;;;;;;;0.77;0.50;;;;;;;5.81;93.56;96813.80;1725709;82;21642;-64
2022/02/21 00:40:31;;;;;;;0.82;0.60;;;;;;;5.81;93.57;96808.63;1727190;82;21787;-64
2022/02/21 00:42:57;;;;;;;0.80;0.60;;;;;;;5.81;93.62;96795.67;1723127;82;20983;-64
2022/02/21 00:45:24;;;;;;;0.80;0.65;;;;;;;5.82;93.69;96786.96;1727871;82;21148;-64
2022/02/21 00:47:51;;;;;;;0.90;0.60;;;;;;;5.80;93.73;96784.50;1731685;82;21070;-63
2022/02/21 00:50:17;;;;;;;1.57;0.50;;;;;;;5.81;93.72;96772.38;1725897;82;21276;-64
2022/02/21 00:52:44;;;;;;;0.98;0.50;;;;;;;5.79;93.78;96756.94;1732208;81;21566;-64
2022/02/21 00:55:11;;;;;;;1.33;0.67;;;;;;;5.81;93.82;96749.07;1712781;82;21621;-64
2022/02/21 00:57:37;;;;;;;1.00;0.70;;;;;;;5.77;93.85;96739.87;1710783;82;21526;-64
2022/02/21 01:00:07;;;;;;;0.53;0.50;;;;;;;5.80;93.86;96744.84;1703090;82;21028;-64
2022/02/21 01:02:34;;;;;;;0.75;0.60;;;;;;;5.79;93.91;96734.11;1734215;82;21102;-63
2022/02/21 01:05:01;;;;;;;0.65;0.60;;;;;;;5.79;94.00;96730.23;1705834;82;21751;-63
2022/02/21 01:07:28;;;;;;;0.42;0.40;;;;;;;5.78;94.06;96728.59;1735215;81;21016;-63
2022/02/21 01:09:55;;;;;;;0.60;0.43;;;;;;;5.80;94.12;96725.42;1709744;82;20993;-63
2022/02/21 01:12:22;;;;;;;0.47;0.40;;;;;;;5.80;94.13;96708.59;1742634;81;25945;-63
2022/02/21 01:14:51;;;;;;;0.53;0.42;;;;;;;5.80;94.14;96708.59;1723789;81;22058;-64
2022/02/21 01:17:19;;;;;;;0.82;0.65;;;;;;;5.79;94.07;96691.39;1733377;81;21631;-64
2022/02/21 01:19:46;;;;;;;0.40;0.40;;;;;;;5.79;94.18;96683.63;1734246;81;21104;-64
2022/02/21 01:22:12;;;;;;;0.63;0.40;;;;;;;5.79;94.20;96684.92;1735482;81;20915;-64
2022/02/21 01:24:39;;;;;;;1.47;0.60;;;;;;;5.78;94.23;96674.22;1737898;81;21416;-64
2022/02/21 01:27:06;;;;;;;0.87;0.43;;;;;;;5.78;94.26;96671.63;1737718;81;21288;-64
2022/02/21 01:29:32;;;;;;;0.88;0.53;;;;;;;5.78;94.26;96666.45;1729268;81;20954;-64
2022/02/21 01:31:59;;;;;;;0.37;0.23;;;;;;;5.79;94.29;96652.56;1735244;80;21549;-64
2022/02/21 01:34:26;;;;;;;0.70;0.50;;;;;;;5.79;94.35;96647.37;1732431;81;21076;-64
2022/02/21 01:36:55;;;;;;;0.67;0.40;;;;;;;5.79;94.32;96637.03;1733967;81;20977;-64
2022/02/21 01:39:22;;;;;;;0.93;0.53;;;;;;;5.78;94.38;96622.45;1714570;82;23248;-63
2022/02/21 01:41:48;;;;;;;0.40;0.30;;;;;;;5.77;94.39;96625.95;1729379;81;21054;-64
2022/02/21 01:44:16;;;;;;;0.85;0.55;;;;;;;5.76;94.39;96619.14;1735656;81;21057;-63
2022/02/21 01:46:44;;;;;;;0.30;0.30;;;;;;;5.76;94.51;96616.55;1710070;82;21063;-64
2022/02/21 01:49:13;;;;;;;0.70;0.50;;;;;;;5.75;94.43;96589.84;1736472;81;21020;-64
2022/02/21 01:51:40;;;;;;;0.50;0.30;;;;;;;5.73;94.45;96593.49;1742457;81;21098;-63
2022/02/21 01:54:10;;;;;;;0.88;0.60;;;;;;;5.74;94.55;96571.83;1744387;81;21025;-64
2022/02/21 01:56:37;;;;;;;0.57;0.50;;;;;;;5.74;94.55;96571.83;1717684;82;21586;-64
2022/02/21 01:59:05;;;;;;;0.75;0.50;;;;;;;5.75;94.59;96576.09;1725261;82;21009;-63
2022/02/21 02:01:31;;;;;;;1.52;0.35;;;;;;;5.75;94.60;96563.14;1706496;82;21037;-63
2022/02/21 02:04:00;;;;;;;1.00;0.40;;;;;;;5.74;94.63;96560.19;1711045;82;21082;-63
2022/02/21 02:06:29;;;;;;;0.40;0.30;;;;;;;5.73;94.64;96554.66;1728942;81;21585;-64
2022/02/21 02:08:58;;;;;;;0.68;0.45;;;;;;;5.73;94.69;96544.31;1730895;82;21001;-64
2022/02/21 02:11:26;;;;;;;0.93;0.45;;;;;;;5.73;94.65;96546.42;1722721;82;20952;-64
2022/02/21 02:13:53;;;;;;;0.50;0.30;;;;;;;5.72;94.62;96527.95;1712779;81;21100;-64
2022/02/21 02:16:19;;;;;;;0.50;0.50;;;;;;;5.72;94.69;96524.55;1732253;81;21500;-64
2022/02/21 02:18:47;;;;;;;1.15;0.47;;;;;;;5.71;94.67;96519.01;1717460;82;21123;-63
2022/02/21 02:21:21;;;;;;;0.42;0.30;;;;;;;5.68;94.75;96508.42;1711615;82;21001;-66
2022/02/21 02:23:50;;;;;;;0.80;0.40;;;;;;;5.69;94.75;96504.09;1722098;82;21491;-63
2022/02/21 02:26:18;;;;;;;0.30;0.30;;;;;;;5.69;94.91;96501.02;1705558;82;21539;-63
2022/02/21 02:28:49;;;;;;;1.10;0.35;;;;;;;5.69;94.95;96495.84;1733528;81;21105;-64
2022/02/21 02:31:16;;;;;;;0.30;0.30;;;;;;;5.68;94.92;96486.89;1732989;81;21057;-64
2022/02/21 02:33:43;;;;;;;0.47;0.40;;;;;;;5.68;95.01;96479.95;1700563;82;21054;-64
2022/02/21 02:36:11;;;;;;;0.40;0.30;;;;;;;5.68;94.99;96471.36;1731638;81;21708;-64
2022/02/21 02:38:39;;;;;;;0.82;0.42;;;;;;;5.70;95.02;96461.24;1731535;80;20943;-64
2022/02/21 02:41:09;;;;;;;0.20;0.20;;;;;;;5.68;95.10;96461.01;1739793;81;21505;-63
2022/02/21 02:43:38;;;;;;;0.70;0.40;;;;;;;5.68;95.13;96451.47;1735754;81;21052;-64
2022/02/21 02:46:04;;;;;;;0.65;0.40;;;;;;;5.69;95.11;96439.38;1736902;81;22268;-63
2022/02/21 02:48:33;;;;;;;0.30;0.25;;;;;;;5.68;95.11;96432.53;1736240;81;20979;-64
2022/02/21 02:51:00;;;;;;;0.20;0.20;;;;;;;5.67;95.20;96426.55;1738097;81;21025;-64
2022/02/21 02:53:29;;;;;;;1.17;0.30;;;;;;;5.67;95.22;96416.67;1682042;82;21787;-64
2022/02/21 02:55:57;;;;;;;0.28;0.20;;;;;;;5.67;95.18;96411.49;1685890;84;21515;-63
2022/02/21 02:58:24;;;;;;;0.20;0.20;;;;;;;5.67;95.17;96394.67;1679606;84;20946;-63
2022/02/21 03:00:51;;;;;;;1.45;0.30;;;;;;;5.67;95.19;96390.78;1679637;84;21052;-63
2022/02/21 03:03:21;;;;;;;0.28;0.28;;;;;;;5.67;95.24;96373.96;1677392;84;21073;-64
2022/02/21 03:05:47;;;;;;;0.30;0.27;;;;;;;5.64;95.28;96369.03;1691367;84;21555;-63
2022/02/21 03:08:14;;;;;;;0.50;0.30;;;;;;;5.55;95.35;96362.36;1685197;84;22256;-64
2022/02/21 03:10:41;;;;;;;0.30;0.30;;;;;;;5.61;95.37;96352.80;1702183;82;20954;-64
2022/02/21 03:13:08;;;;;;;0.35;0.20;;;;;;;5.61;95.35;96332.09;1685137;84;21511;-64
2022/02/21 03:15:34;;;;;;;0.30;0.20;;;;;;;5.60;95.39;96333.05;1692921;82;21048;-63
2022/02/21 03:18:01;;;;;;;1.12;0.30;;;;;;;5.59;95.39;96331.39;1698831;84;21526;-63
2022/02/21 03:20:28;;;;;;;0.30;0.30;;;;;;;5.58;95.38;96328.94;1679640;84;21084;-64
2022/02/21 03:22:55;;;;;;;0.30;0.20;;;;;;;5.58;95.46;96318.11;1671260;83;21053;-63
2022/02/21 03:25:21;;;;;;;0.40;0.30;;;;;;;5.60;95.57;96316.68;1685539;83;21491;-63
2022/02/21 03:27:48;;;;;;;0.68;0.40;;;;;;;5.59;95.54;96311.98;1684132;84;21097;-63
2022/02/21 03:30:15;;;;;;;0.53;0.30;;;;;;;5.61;95.58;96305.40;1683082;84;21043;-64
2022/02/21 03:32:42;;;;;;;0.23;0.23;;;;;;;5.60;95.57;96303.29;1702575;83;21002;-63
2022/02/21 03:35:09;;;;;;;0.40;0.40;;;;;;;5.61;95.60;96297.16;1704238;81;21173;-63
2022/02/21 03:37:35;;;;;;;0.20;0.20;;;;;;;5.61;95.64;96294.57;1694253;84;21139;-63
2022/02/21 03:40:06;;;;;;;0.40;0.25;;;;;;;5.63;95.71;96284.55;1682314;84;21570;-63
2022/02/21 03:42:33;;;;;;;1.37;0.40;;;;;;;5.64;95.75;96281.04;1687392;84;21935;-64
2022/02/21 03:45:01;;;;;;;0.20;0.20;;;;;;;5.66;95.78;96279.13;1696584;82;21010;-63
2022/02/21 03:47:28;;;;;;;0.40;0.30;;;;;;;5.66;95.80;96268.77;1684110;84;21042;-63
2022/02/21 03:49:54;;;;;;;0.50;0.20;;;;;;;5.67;95.79;96260.08;1692337;84;21010;-63
2022/02/21 03:52:21;;;;;;;0.40;0.30;;;;;;;5.66;95.84;96259.71;1691852;82;21082;-63
2022/02/21 03:54:48;;;;;;;0.50;0.30;;;;;;;5.66;95.90;96245.48;1714701;82;21516;-63
2022/02/21 03:57:14;;;;;;;0.30;0.30;;;;;;;5.67;95.91;96232.90;1742953;81;20978;-63
2022/02/21 03:59:41;;;;;;;0.42;0.40;;;;;;;5.68;95.99;96231.46;1710094;82;20997;-63
2022/02/21 04:02:07;;;;;;;0.30;0.30;;;;;;;5.70;95.96;96233.45;1729711;82;21087;-63
2022/02/21 04:04:34;;;;;;;0.37;0.30;;;;;;;5.73;96.01;96228.50;1725134;81;20916;-64
2022/02/21 04:07:01;;;;;;;0.20;0.20;;;;;;;5.74;96.01;96214.59;1730593;81;21063;-63
2022/02/21 04:09:28;;;;;;;0.77;0.27;;;;;;;5.66;96.03;96191.13;1736127;80;20947;-64
2022/02/21 04:11:54;;;;;;;0.43;0.30;;;;;;;5.66;96.03;96191.13;1734346;81;20985;-63
2022/02/21 04:14:21;;;;;;;0.30;0.30;;;;;;;5.76;96.14;96197.18;1733076;81;21111;-64
2022/02/21 04:16:47;;;;;;;0.40;0.40;;;;;;;5.76;96.13;96202.36;1710717;82;21542;-63
2022/02/21 04:19:14;;;;;;;0.60;0.30;;;;;;;5.76;96.17;96194.59;1723725;82;21498;-64
2022/02/21 04:21:41;;;;;;;0.40;0.40;;;;;;;5.76;96.18;96197.18;1728956;80;21524;-63
2022/02/21 04:24:08;;;;;;;1.13;0.40;;;;;;;5.77;96.30;96198.81;1712017;82;21020;-64
2022/02/21 04:26:35;;;;;;;0.57;0.30;;;;;;;5.78;96.39;96197.87;1730638;81;21046;-63
2022/02/21 04:29:01;;;;;;;0.70;0.43;;;;;;;5.81;96.40;96182.09;1737406;81;20997;-63
2022/02/21 04:31:28;;;;;;;0.60;0.47;;;;;;;5.83;96.42;96182.78;1736826;81;21649;-63
2022/02/21 04:33:55;;;;;;;1.25;0.60;;;;;;;5.84;96.46;96190.88;1705504;82;21003;-63
2022/02/21 04:36:22;;;;;;;1.43;0.80;;;;;;;5.87;96.46;96176.38;1726017;81;20989;-64
2022/02/21 04:38:49;;;;;;;1.20;0.90;;;;;;;5.89;96.44;96171.91;1727910;81;21202;-64
2022/02/21 04:41:15;;;;;;;1.05;0.80;;;;;;;5.90;96.46;96165.77;1708349;82;21680;-63
2022/02/21 04:43:42;;;;;;;1.00;0.73;;;;;;;5.91;96.45;96164.83;1724068;81;21460;-64
2022/02/21 04:46:09;;;;;;;0.88;0.50;;;;;;;5.91;96.49;96157.06;1728251;82;21531;-64
2022/02/21 04:48:36;;;;;;;0.90;0.57;;;;;;;5.93;96.53;96159.05;1731244;81;20953;-64
2022/02/21 04:51:03;;;;;;;0.45;0.40;;;;;;;5.97;96.64;96142.80;1711418;82;21758;-64
2022/02/21 04:53:30;;;;;;;0.25;0.25;;;;;;;5.99;96.76;96149.95;1732944;81;21038;-64
2022/02/21 04:55:56;;;;;;;0.45;0.30;;;;;;;6.02;96.78;96133.69;1737680;81;21466;-64
2022/02/21 04:58:23;;;;;;;0.47;0.47;;;;;;;6.07;96.80;96136.34;1734955;81;20939;-64
2022/02/21 05:00:50;;;;;;;0.43;0.40;;;;;;;6.08;96.86;96125.87;1737659;81;22180;-64
2022/02/21 05:03:17;;;;;;;;;;;;;;;6.11;96.87;96136.44;1740409;81;22120;-64
2022/02/21 05:05:43;;;;;;;0.62;0.40;;;;;;;6.14;96.89;96123.22;1695885;82;20118;-62
2022/02/21 05:08:10;;;;;;;0.57;0.50;;;;;;;6.14;97.05;96118.05;1694784;82;21093;-62
2022/02/21 05:10:36;;;;;;;0.83;0.60;;;;;;;6.15;97.02;96119.67;1731712;81;21029;-61
2022/02/21 05:13:03;;;;;;;0.80;0.60;;;;;;;6.16;97.10;96113.53;1709528;82;21078;-61
2022/02/21 05:15:30;;;;;;;0.70;0.47;;;;;;;6.19;97.20;96114.55;1733760;81;21092;-63
2022/02/21 05:17:56;;;;;;;0.40;0.40;;;;;;;6.22;97.28;96100.06;1732808;81;21487;-62
2022/02/21 05:20:24;;;;;;;1.12;0.50;;;;;;;6.25;97.20;96099.80;1741824;81;21143;-62
2022/02/21 05:22:51;;;;;;;1.25;0.47;;;;;;;6.27;97.16;96093.98;1711606;82;21076;-63
2022/02/21 05:25:18;;;;;;;0.88;0.50;;;;;;;6.29;97.13;96089.48;1732430;81;21495;-62
2022/02/21 05:27:45;;;;;;;1.00;0.45;;;;;;;6.30;97.12;96087.71;1709008;82;21068;-62
2022/02/21 05:30:32;;;;;;;0.55;0.35;;;;;;;6.32;97.17;96091.81;1737438;81;21606;-62
2022/02/21 05:32:58;;;;;;;1.15;0.60;;;;;;;6.34;97.36;96086.02;1756597;80;21797;-63
2022/02/21 05:35:25;;;;;;;0.82;0.50;;;;;;;6.38;97.33;96082.19;1764203;80;21048;-62
2022/02/21 05:37:51;;;;;;;2.02;0.82;;;;;;;6.40;97.34;96090.66;1758641;81;21081;-63
2022/02/21 05:40:18;;;;;;;1.32;0.80;;;;;;;6.41;97.31;96093.61;1760691;80;20992;-63
2022/02/21 05:43:10;;;;;;;1.30;0.63;;;;;;;6.42;97.38;96083.58;1757851;81;21640;-63
2022/02/21 05:45:36;;;;;;;1.30;0.72;;;;;;;6.43;97.31;96086.50;1758874;81;21082;-63
2022/02/21 05:48:04;;;;;;;2.10;1.23;;;;;;;6.44;97.32;96086.86;1762966;80;21080;-62
2022/02/21 05:50:30;;;;;;;1.35;0.80;;;;;;;6.47;97.30;96085.77;1760263;80;21251;-63
2022/02/21 05:52:57;;;;;;;0.75;0.50;;;;;;;6.47;97.36;96080.59;1758922;80;20914;-62
2022/02/21 05:55:24;;;;;;;1.40;0.60;;;;;;;6.48;97.29;96083.03;1761453;80;21635;-63
2022/02/21 05:57:57;;;;;;;1.50;1.10;;;;;;;6.50;97.32;96082.91;1762296;80;21218;-63
2022/02/21 06:00:29;;;;;;;1.70;1.10;;;;;;;6.50;97.40;96079.83;1758951;80;21016;-63
2022/02/21 06:02:55;;;;;;;2.25;0.75;;;;;;;6.50;97.37;96074.65;1763988;79;21000;-63
2022/02/21 06:05:22;;;;;;;1.20;0.77;;;;;;;6.53;97.42;96081.81;1764434;80;20937;-63
2022/02/21 06:07:49;;;;;;;1.80;0.80;;;;;;;6.55;97.45;96081.18;1761298;80;21402;-63
2022/02/21 06:10:15;;;;;;;1.57;0.93;;;;;;;6.56;97.36;96076.36;1760588;80;21099;-63
2022/02/21 06:12:44;;;;;;;0.87;0.80;;;;;;;6.55;97.38;96077.30;1764818;80;20925;-62
2022/02/21 06:15:11;;;;;;;2.22;1.20;;;;;;;6.54;97.40;96078.27;1739589;80;20945;-64
2022/02/21 06:17:39;;;;;;;2.02;1.00;;;;;;;6.54;97.34;96065.30;1761756;80;20941;-64
2022/02/21 06:20:07;;;;;;;0.85;0.80;;;;;;;6.53;97.38;96069.67;1759362;80;22486;-62
2022/02/21 06:22:34;;;;;;;4.03;0.98;;;;;;;6.55;97.48;96061.74;1763387;80;22607;-62
2022/02/21 06:25:07;;;;;;;1.82;0.80;;;;;;;6.56;97.46;96053.03;1760769;80;21537;-62
2022/02/21 06:27:36;;;;;;;2.67;1.00;;;;;;;6.58;97.48;96061.47;1760086;81;20984;-62
2022/02/21 06:30:04;;;;;;;;;;;;;;;6.59;97.45;96056.64;1765001;80;21617;-62
2022/02/21 06:32:31;;;;;;;0.82;0.50;;;;;;;6.61;97.50;96053.41;1759157;80;20176;-63
2022/02/21 06:34:59;;;;;;;1.30;0.95;;;;;;;6.63;97.50;96059.28;1759716;81;21235;-62
2022/02/21 06:37:27;;;;;;;0.98;0.88;;;;;;;6.65;97.53;96065.16;1761249;80;21051;-62
2022/02/21 06:39:57;;;;;;;1.35;0.80;;;;;;;6.67;97.45;96065.84;1759212;80;21034;-63
2022/02/21 06:42:24;;;;;;;1.32;0.80;;;;;;;6.69;97.33;96113.17;1760151;80;21592;-63
2022/02/21 06:44:50;;;;;;;4.30;0.87;;;;;;;6.63;96.45;96127.98;1758210;80;21004;-62
2022/02/21 06:47:19;;;;;;;1.75;0.42;;;;;;;6.26;95.58;96137.69;1731930;82;21137;-63
2022/02/21 06:49:47;;;;;;;0.80;0.28;;;;;;;5.81;97.46;96178.20;1732303;82;20969;-62
2022/02/21 06:52:13;;;;;;;0.62;0.35;;;;;;;5.54;96.86;96175.67;1742272;80;21004;-63
2022/02/21 06:54:43;;;;;;;3.45;1.02;;;;;;;5.43;96.77;96191.27;1762528;80;21048;-62
2022/02/21 06:57:11;;;;;;;0.47;0.20;;;;;;;5.41;96.70;96187.20;1762088;80;21150;-62
2022/02/21 06:59:39;;;;;;;2.08;0.60;;;;;;;5.38;96.69;96183.09;1728144;82;21543;-63
2022/02/21 07:02:07;;;;;;;1.25;1.02;;;;;;;5.39;96.77;96192.48;1764517;80;21013;-63
2022/02/21 07:04:37;;;;;;;2.15;0.70;;;;;;;5.41;96.80;96188.02;1761882;80;21008;-62
2022/02/21 07:07:04;;;;;;;1.55;0.57;;;;;;;5.42;96.64;96193.52;1734770;81;21053;-64
2022/02/21 07:09:32;;;;;;;2.15;1.32;;;;;;;5.44;96.54;96177.41;1761991;80;20968;-63
2022/02/21 07:11:58;;;;;;;1.15;0.70;;;;;;;5.43;96.50;96180.92;1728954;82;21457;-63
2022/02/21 07:14:28;;;;;;;0.95;0.68;;;;;;;5.43;96.47;96199.03;1757611;80;21553;-63
2022/02/21 07:16:55;;;;;;;3.77;0.60;;;;;;;5.48;96.53;96195.59;1757828;80;21020;-63
2022/02/21 07:19:22;;;;;;;2.50;0.45;;;;;;;5.60;96.61;96190.71;1759684;81;20949;-61
2022/02/21 07:21:48;;;;;;;0.73;0.33;;;;;;;5.71;96.58;96188.98;1764257;80;21055;-61
2022/02/21 07:24:15;;;;;;;0.72;0.40;;;;;;;5.80;96.36;96201.17;1735304;81;21184;-62
2022/02/21 07:26:43;;;;;;;0.68;0.50;;;;;;;5.82;96.25;96200.09;1761147;80;21006;-63
2022/02/21 07:29:09;;;;;;;4.25;0.68;;;;;;;5.83;95.89;96240.55;1764641;80;20976;-62
2022/02/21 07:31:36;;;;;;;0.65;0.40;;;;;;;5.80;95.77;96268.48;1766306;80;21036;-63
2022/02/21 07:34:03;;;;;;;0.47;0.40;;;;;;;5.70;95.49;96290.88;1764693;80;21017;-62
2022/02/21 07:36:31;;;;;;;0.60;0.40;;;;;;;5.35;94.37;96251.42;1767909;80;21949;-66
2022/02/21 07:39:05;;;;;;;2.33;0.55;;;;;;;5.09;94.41;96284.55;1751072;80;21775;-62
2022/02/21 07:41:34;;;;;;;0.57;0.47;;;;;;;4.93;94.55;96297.08;1742217;80;20996;-66
2022/02/21 07:44:02;;;;;;;1.12;0.40;;;;;;;4.81;94.23;96308.36;1760863;80;21007;-65
2022/02/21 07:46:30;;;;;;;0.70;0.40;;;;;;;4.65;94.03;96308.28;1761174;80;21983;-63
2022/02/21 07:48:59;;;;;;;0.55;0.30;;;;;;;4.52;94.05;96326.95;1763484;80;21274;-63
2022/02/21 07:51:26;;;;;;;3.77;0.80;;;;;;;4.49;94.17;96324.61;1755974;80;21648;-64
2022/02/21 07:53:55;;;;;;;1.45;0.40;;;;;;;4.46;94.13;96314.52;1758815;80;21072;-63
2022/02/21 07:56:22;;;;;;;1.77;0.62;;;;;;;4.46;94.22;96322.27;1758801;80;21079;-64
2022/02/21 07:58:49;;;;;;;0.80;0.55;;;;;;;4.52;94.21;96301.12;1760570;80;21111;-64
2022/02/21 08:01:16;;;;;;;1.70;0.72;;;;;;;4.56;94.06;96302.52;1759770;80;21413;-61
2022/02/21 08:03:44;;;;;;;2.90;1.00;;;;;;;4.62;93.98;96320.15;1758986;80;21117;-62
2022/02/21 08:06:12;;;;;;;1.60;0.88;;;;;;;4.68;93.87;96324.02;1760986;80;21055;-62
2022/02/21 08:08:39;;;;;;;1.80;1.47;;;;;;;4.71;93.73;96311.67;1760971;80;21521;-62
2022/02/21 08:11:07;;;;;;;3.27;0.93;;;;;;;4.75;93.70;96310.95;1736727;81;25286;-62
2022/02/21 08:13:33;;;;;;;1.40;0.80;;;;;;;4.84;93.84;96315.88;1765765;80;21024;-63
2022/02/21 08:16:00;;;;;;;3.50;0.70;;;;;;;4.89;93.61;96318.45;1762190;80;21111;-63
2022/02/21 08:18:27;;;;;;;3.17;0.90;;;;;;;4.94;93.46;96325.85;1759294;80;22780;-63
2022/02/21 08:20:54;;;;;;;1.37;0.80;;;;;;;4.99;93.50;96328.91;1763956;79;21072;-63
2022/02/21 08:23:21;;;;;;;1.85;0.65;;;;;;;5.13;93.54;96322.16;1760330;80;21002;-63
2022/02/21 08:25:48;;;;;;;2.35;1.00;;;;;;;5.30;93.52;96335.52;1759820;80;22221;-62
2022/02/21 08:28:15;;;;;;;1.80;0.80;;;;;;;5.44;92.93;96327.95;1760175;80;21052;-63
2022/02/21 08:30:42;;;;;;;2.47;1.17;;;;;;;5.55;93.00;96348.13;1761361;80;21549;-62
2022/02/21 08:33:09;;;;;;;1.42;0.78;;;;;;;5.65;93.04;96337.02;1751950;80;20864;-63
2022/02/21 08:35:36;;;;;;;1.95;1.00;;;;;;;5.78;92.95;96342.84;1750131;81;21013;-63
2022/02/21 08:38:04;;;;;;;2.33;0.82;;;;;;;5.89;92.60;96348.45;1750042;81;21143;-62
2022/02/21 08:40:32;;;;;;;1.85;0.75;;;;;;;5.86;92.23;96355.98;1754987;80;21071;-63
2022/02/21 08:43:00;;;;;;;1.77;0.60;;;;;;;5.79;91.87;96365.19;1752707;80;21036;-63
2022/02/21 08:45:27;;;;;;;3.17;0.72;;;;;;;5.69;91.87;96365.61;1752159;80;21065;-65
2022/02/21 08:47:56;;;;;;;3.00;0.75;;;;;;;5.60;91.79;96371.88;1752543;81;21557;-63
2022/02/21 08:50:26;;;;;;;2.27;1.10;;;;;;;5.47;91.23;96363.45;1751227;80;21138;-63
2022/02/21 08:52:53;;;;;;;2.33;1.30;;;;;;;5.34;91.38;96375.70;1751247;80;21016;-62
2022/02/21 08:55:40;;;;;;;4.42;0.80;;;;;;;5.28;91.52;96391.72;1710641;82;27435;-63
2022/02/21 08:58:07;;;;;;;2.25;0.75;;;;;;;5.25;91.56;96410.07;1708354;82;21638;-63
2022/02/21 09:00:34;;;;;;;3.37;0.88;;;;;;;5.24;91.38;96352.83;1764763;80;20990;-64
2022/02/21 09:03:01;;;;;;;1.97;0.77;;;;;;;5.23;91.38;96366.69;1764476;79;21065;-65
2022/02/21 09:05:27;;;;;;;2.50;0.65;;;;;;;5.26;91.51;96388.42;1763100;79;21837;-63
2022/02/21 09:07:55;;;;;;;2.08;0.75;;;;;;;5.41;91.62;96383.82;1764925;79;20959;-65
2022/02/21 09:10:21;;;;;;;1.80;0.68;;;;;;;5.55;91.36;96374.00;1766933;79;20961;-64
2022/02/21 09:12:48;;;;;;;2.07;1.07;;;;;;;5.61;91.30;96386.45;1766910;79;22614;-64
2022/02/21 09:15:16;;;;;;;5.80;0.88;;;;;;;5.70;91.23;96399.59;1766319;79;21891;-63
2022/02/21 09:17:43;;;;;;;3.62;1.00;;;;;;;5.62;90.71;96387.27;1765716;79;21047;-63
2022/02/21 09:20:10;;;;;;;2.27;0.90;;;;;;;5.58;90.74;96378.93;1764895;80;21062;-64
2022/02/21 09:22:37;;;;;;;3.20;1.25;;;;;;;5.50;90.39;96414.95;1764014;79;21601;-64
2022/02/21 09:25:05;;;;;;;3.27;1.50;;;;;;;5.31;90.10;96407.00;1766424;79;20991;-64
2022/02/21 09:27:32;;;;;;;2.35;1.20;;;;;;;5.06;90.05;96446.41;1766292;79;21419;-63
2022/02/21 09:29:58;;;;;;;3.50;1.00;;;;;;;4.84;90.03;96427.84;1765043;79;21044;-63
2022/02/21 09:32:25;;;;;;;2.80;0.60;;;;;;;4.71;89.85;96398.25;1764229;79;21032;-63
2022/02/21 09:34:54;;;;;;;1.05;0.70;;;;;;;4.59;89.54;96423.72;1766700;79;20973;-63
2022/02/21 09:37:20;;;;;;;2.58;0.72;;;;;;;4.49;89.74;96425.37;1764681;79;21116;-62
2022/02/21 09:39:47;;;;;;;3.25;1.20;;;;;;;4.53;89.88;96447.44;1764738;79;22255;-63
2022/02/21 09:42:14;;;;;;;5.10;1.00;;;;;;;4.63;89.76;96443.23;1764731;79;21067;-62
2022/02/21 09:44:41;;;;;;;2.95;1.17;;;;;;;4.74;89.52;96426.10;1762872;80;21040;-63
2022/02/21 09:47:08;;;;;;;3.37;1.25;;;;;;;4.77;89.35;96438.78;1763376;79;21124;-63
2022/02/21 09:49:34;;;;;;;3.83;1.20;;;;;;;4.79;89.16;96461.44;1762527;79;21021;-63
2022/02/21 09:52:01;;;;;;;4.70;1.30;;;;;;;4.91;89.37;96453.59;1764424;79;21096;-64
2022/02/21 09:54:31;;;;;;;6.92;1.15;;;;;;;5.00;88.64;96486.96;1759617;80;20965;-63
2022/02/21 09:56:59;;;;;;;4.95;1.30;;;;;;;5.07;88.22;96450.66;1755055;80;21515;-63
2022/02/21 09:59:27;;;;;;;6.87;1.47;;;;;;;5.16;88.38;96476.28;1753877;81;21000;-63
2022/02/21 10:01:54;;;;;;;5.10;1.70;;;;;;;5.30;88.83;96484.27;1753686;80;20926;-63
2022/02/21 10:04:30;;;;;;;5.87;1.72;;;;;;;5.46;88.72;96500.69;1755815;80;20961;-61
2022/02/21 10:06:57;;;;;;;6.25;1.87;;;;;;;5.57;88.14;96492.91;1754830;81;20993;-63
2022/02/21 10:09:26;;;;;;;5.22;1.72;;;;;;;5.57;87.89;96483.41;1756526;80;20992;-65
2022/02/21 10:11:58;;;;;;;5.62;1.70;;;;;;;5.57;87.26;96483.41;1754033;80;21553;-65
2022/02/21 10:14:32;;;;;;;4.22;1.35;;;;;;;5.59;87.62;96449.15;1755694;81;21040;-66
2022/02/21 10:17:01;;;;;;;5.25;1.62;;;;;;;5.61;87.55;96500.33;1750078;81;21082;-66
2022/02/21 10:19:38;;;;;;;6.60;1.70;;;;;;;5.64;87.35;96495.86;1750556;81;21001;-66
2022/02/21 10:22:10;;;;;;;4.80;1.92;;;;;;;5.68;87.33;96510.19;1751366;80;20997;-66
2022/02/21 10:24:46;;;;;;;5.60;2.02;;;;;;;5.58;86.85;96488.92;1751319;81;21535;-66
2022/02/21 10:27:29;;;;;;;;;;;;;;;5.41;86.59;96511.42;1756648;81;21060;-64
2022/02/21 10:30:04;;;;;;;6.95;2.00;;;;;;;5.28;86.52;96516.70;1755184;81;21081;-69
2022/02/21 10:32:34;;;;;;;7.80;1.90;;;;;;;5.16;86.20;96519.77;1756098;80;20951;-66
2022/02/21 10:35:25;;;;;;;5.97;1.77;;;;;;;4.97;85.57;96518.23;1753615;81;21593;-66
2022/02/21 10:37:59;;;;;;;6.25;2.30;;;;;;;4.88;85.84;96513.76;1735306;81;21078;-63
2022/02/21 10:40:36;;;;;;;10.80;2.37;;;;;;;4.86;86.07;96544.06;1737967;81;20973;-66
2022/02/21 10:44:44;;;;;;;6.50;1.50;;;;;;;4.94;86.08;96533.97;1837635;76;21987;-65
2022/02/21 10:47:18;;;;;;;5.83;1.80;;;;;;;4.91;85.74;96530.33;1815838;78;20919;-63
2022/02/21 10:49:59;;;;;;;5.33;2.75;;;;;;;4.88;85.77;96544.78;1819696;77;21070;-64
2022/02/21 10:52:35;;;;;;;5.47;1.87;;;;;;;4.87;85.42;96548.28;1815331;77;21653;-65
2022/02/21 10:55:05;;;;;;;6.30;2.02;;;;;;;4.77;85.51;96552.52;1822858;78;20985;-65
2022/02/21 10:57:42;;;;;;;8.58;1.80;;;;;;;4.83;85.60;96557.22;1813051;78;20969;-66
2022/02/21 11:00:10;;;;;;;;;;;;;;;4.87;85.38;96558.63;1813741;77;20983;-65
2022/02/21 11:02:41;;;;;;;11.55;2.60;;;;;;;4.94;85.15;96546.90;1810369;77;21189;-64
2022/02/21 11:05:10;;;;;;;5.85;2.05;;;;;;;4.93;85.12;96545.27;1789544;78;21401;-64
2022/02/21 11:07:41;;;;;;;9.05;3.12;;;;;;;4.87;84.79;96572.84;1819635;77;21000;-64
2022/02/21 11:10:10;;;;;;;5.12;1.77;;;;;;;4.82;84.84;96573.67;1811995;77;21069;-65
2022/02/21 11:12:40;;;;;;;8.40;2.25;;;;;;;4.79;84.78;96578.61;1748889;80;21001;-65
2022/02/21 11:15:08;;;;;;;9.90;2.50;;;;;;;4.71;84.88;96580.45;1755668;80;22014;-64
2022/02/21 11:17:38;;;;;;;7.00;2.50;;;;;;;4.63;84.30;96569.86;1777225;78;21010;-64
2022/02/21 11:20:08;;;;;;;11.38;2.20;;;;;;;4.56;84.73;96581.56;1756560;80;21056;-64
2022/02/21 11:22:37;;;;;;;5.62;2.10;;;;;;;4.55;84.67;96582.52;1766640;80;22436;-64
2022/02/21 11:25:20;;;;;;;8.53;2.20;;;;;;;4.53;84.50;96578.39;1763091;79;22411;-65
2022/02/21 11:28:11;;;;;;;8.78;2.35;;;;;;;4.49;84.45;96593.30;1761181;79;21134;-64
2022/02/21 11:30:40;;;;;;;14.25;2.80;;;;;;;4.42;84.57;96611.45;1759699;79;21072;-64
2022/02/21 11:33:13;;;;;;;9.18;2.47;;;;;;;4.49;84.93;96605.74;1739545;80;21076;-64
2022/02/21 11:39:44;;;;;;;12.58;2.67;;;;;;;4.66;84.64;96621.31;1754970;79;21023;-64
2022/02/21 11:42:18;;;;;;;7.97;2.00;;;;;;;4.73;84.02;96588.08;1761509;79;21104;-63
2022/02/21 11:44:53;;;;;;;6.33;2.08;;;;;;;4.77;83.84;96586.94;1753125;79;21609;-62
2022/02/21 11:47:43;;;;;;;9.68;2.27;;;;;;;4.83;84.03;96607.63;1736750;81;21057;-62
2022/02/21 11:50:25;;;;;;;11.73;2.87;;;;;;;4.93;84.01;96596.97;1733716;81;21815;-62
2022/02/21 11:52:59;;;;;;;11.40;2.58;;;;;;;4.98;83.94;96597.42;1763040;79;21054;-62
2022/02/21 11:55:55;;;;;;;7.55;2.77;;;;;;;5.06;83.91;96606.73;1734266;81;22556;-62